Time;durP1;ratioP1;P1;durP2;ratioP2;P2;SDS_P1;SDS_P2;PMS_P1;PMS_P2;Temp;Humidity;BMP_temperature;BMP_pressure;BME280_temperature;BME280_humidity;BME280_pressure;Samples;Min_cycle;Max_cycle;Signal;HPM_P1;HPM_P2
2023/09/13 00:01:38;;;;;;;3.03;1.50;;;;;;;16.96;100.00;98036.47;15279423;19;20050;-56
2023/09/13 00:07:05;;;;;;;3.53;1.67;;;;;;;16.89;100.00;98080.00;15269996;19;20018;-56
2023/09/13 00:12:30;;;;;;;3.65;1.70;;;;;;;16.84;100.00;98085.22;15275033;19;20018;-54
2023/09/13 00:17:55;;;;;;;3.53;2.00;;;;;;;16.84;100.00;98104.25;15270895;19;20070;-51
2023/09/13 00:23:23;;;;;;;3.28;1.58;;;;;;;16.70;100.00;98179.59;15268386;19;20511;-54
2023/09/13 00:28:50;;;;;;;3.10;1.88;;;;;;;16.57;100.00;98196.75;15275859;19;20019;-53
2023/09/13 00:34:14;;;;;;;3.58;1.50;;;;;;;16.52;100.00;98164.72;15271076;19;20078;-52
2023/09/13 00:39:41;;;;;;;2.00;1.50;;;;;;;16.53;100.00;98158.22;15279911;19;20027;-55
2023/09/13 00:45:06;;;;;;;4.38;1.70;;;;;;;16.49;100.00;98152.34;15286432;19;20014;-53
2023/09/13 00:50:31;;;;;;;2.92;1.70;;;;;;;16.48;100.00;98156.13;15290402;19;20032;-54
2023/09/13 00:56:15;;;;;;;4.72;1.88;;;;;;;16.48;100.00;98177.03;15279073;19;20372;-53
2023/09/13 01:01:41;;;;;;;3.15;1.85;;;;;;;16.49;100.00;98178.72;15287237;19;20549;-52
2023/09/13 01:07:05;;;;;;;4.10;1.70;;;;;;;16.50;100.00;98185.84;15282394;19;20018;-52
2023/09/13 01:12:33;;;;;;;2.58;1.60;;;;;;;16.51;100.00;98200.25;15273328;19;20019;-54
2023/09/13 01:18:10;;;;;;;2.28;1.60;;;;;;;16.54;100.00;98183.53;15279658;19;20022;-54
2023/09/13 01:23:57;;;;;;;3.03;1.70;;;;;;;16.58;100.00;98193.81;15284521;19;20015;-53
2023/09/13 01:29:26;;;;;;;4.60;1.83;;;;;;;16.59;100.00;98219.97;15274632;19;20018;-51
2023/09/13 01:34:51;;;;;;;2.60;1.83;;;;;;;16.60;100.00;98212.63;15272828;19;20479;-50
2023/09/13 01:40:17;;;;;;;3.22;1.73;;;;;;;16.60;100.00;98234.38;15275526;19;20016;-48
2023/09/13 01:45:45;;;;;;;3.70;1.95;;;;;;;16.61;100.00;98225.19;15268176;19;20070;-50
2023/09/13 01:51:11;;;;;;;2.92;1.85;;;;;;;16.59;100.00;98227.25;15270758;19;20086;-50
2023/09/13 01:56:37;;;;;;;3.67;1.85;;;;;;;16.58;100.00;98226.44;15267074;19;20066;-50
2023/09/13 02:02:04;;;;;;;3.83;1.98;;;;;;;16.57;100.00;98232.91;15276282;19;20485;-50
2023/09/13 02:07:29;;;;;;;3.10;1.63;;;;;;;16.56;100.00;98223.06;15271974;19;20015;-52
2023/09/13 02:12:54;;;;;;;3.67;1.90;;;;;;;16.56;100.00;98227.69;15273684;19;20038;-50
2023/09/13 02:18:28;;;;;;;3.63;1.80;;;;;;;16.55;100.00;98221.41;15268750;19;20018;-51
2023/09/13 02:23:54;;;;;;;2.83;1.80;;;;;;;16.53;100.00;98218.03;15273155;19;20019;-82
2023/09/13 02:29:18;;;;;;;5.43;1.80;;;;;;;16.51;100.00;98213.84;15286380;19;20014;-83
2023/09/13 02:34:48;;;;;;;3.15;1.90;;;;;;;16.47;100.00;98202.56;15281347;19;20028;-82
2023/09/13 02:40:17;;;;;;;4.25;1.90;;;;;;;16.43;100.00;98204.84;15281199;19;20007;-85
2023/09/13 02:45:42;;;;;;;3.55;1.90;;;;;;;16.41;100.00;98209.66;15279598;19;20019;-80
2023/09/13 02:51:09;;;;;;;4.38;1.98;;;;;;;16.42;100.00;98216.78;15271047;19;20013;-83
2023/09/13 02:56:35;;;;;;;4.82;1.98;;;;;;;16.43;100.00;98220.31;15274001;19;21005;-83
2023/09/13 03:02:00;;;;;;;2.92;2.03;;;;;;;16.38;100.00;98214.66;15283858;19;20042;-81
2023/09/13 03:07:29;;;;;;;2.25;1.80;;;;;;;16.36;100.00;98200.44;15277375;19;20034;-80
2023/09/13 03:12:55;;;;;;;2.72;1.90;;;;;;;16.32;100.00;98206.28;15297626;19;20043;-82
2023/09/13 03:18:20;;;;;;;4.05;2.00;;;;;;;16.29;100.00;98195.78;15288233;19;20114;-80
2023/09/13 03:23:55;;;;;;;3.50;2.10;;;;;;;16.26;100.00;98190.78;15281341;19;20007;-81
2023/09/13 03:29:20;;;;;;;3.15;2.05;;;;;;;16.24;100.00;98197.44;15289464;19;20014;-79
2023/09/13 03:34:45;;;;;;;4.95;2.33;;;;;;;16.20;100.00;98188.03;15291234;19;20015;-79
2023/09/13 03:40:14;;;;;;;4.50;2.35;;;;;;;16.16;100.00;98184.91;15294060;19;20035;-80
2023/09/13 03:45:38;;;;;;;5.38;2.40;;;;;;;16.12;100.00;98184.44;15293037;19;20455;-83
2023/09/13 03:51:04;;;;;;;5.13;2.58;;;;;;;16.09;100.00;98192.16;15293504;19;20324;-80
2023/09/13 03:56:31;;;;;;;4.50;2.42;;;;;;;16.06;100.00;98181.69;15288583;19;20033;-83
2023/09/13 04:01:56;;;;;;;2.80;2.22;;;;;;;16.02;100.00;98190.28;15294216;19;20013;-81
2023/09/13 04:07:20;;;;;;;3.20;2.38;;;;;;;15.97;100.00;98197.34;15283458;19;20042;-80
2023/09/13 04:12:49;;;;;;;4.13;2.85;;;;;;;15.95;100.00;98204.88;15289294;19;20623;-81
2023/09/13 04:18:16;;;;;;;4.15;2.80;;;;;;;15.93;100.00;98213.22;15285900;19;20015;-82
2023/09/13 04:23:48;;;;;;;5.78;3.90;;;;;;;15.91;100.00;98220.75;15291037;19;20018;-80
2023/09/13 04:29:18;;;;;;;4.35;3.35;;;;;;;15.91;100.00;98218.03;15291033;19;20011;-80
2023/09/13 04:34:49;;;;;;;5.88;3.00;;;;;;;15.90;100.00;98218.19;15296904;19;20427;-82
2023/09/13 04:40:17;;;;;;;4.90;2.95;;;;;;;15.89;100.00;98221.97;15297956;19;20019;-79
2023/09/13 04:45:49;;;;;;;4.40;2.80;;;;;;;15.87;100.00;98219.44;15297038;19;20018;-79
2023/09/13 04:51:15;;;;;;;3.33;2.60;;;;;;;15.87;100.00;98214.00;15295350;19;20015;-79
2023/09/13 04:56:42;;;;;;;6.05;3.40;;;;;;;15.85;100.00;98224.25;15292327;19;20031;-80
2023/09/13 05:02:16;;;;;;;6.45;3.58;;;;;;;15.89;100.00;98230.97;15301494;19;20011;-79
2023/09/13 05:07:45;;;;;;;6.05;3.22;;;;;;;15.89;100.00;98243.69;15300115;19;20019;-79
2023/09/13 05:13:13;;;;;;;5.80;3.58;;;;;;;15.92;100.00;98252.31;15299112;19;20022;-80
2023/09/13 05:18:42;;;;;;;4.20;3.60;;;;;;;15.94;100.00;98262.97;15302818;19;20006;-79
2023/09/13 05:24:18;;;;;;;4.50;3.45;;;;;;;15.95;100.00;98254.59;15305682;19;20327;-81
2023/09/13 05:29:43;;;;;;;4.40;3.08;;;;;;;15.99;100.00;98271.38;15304874;19;20026;-80
2023/09/13 05:35:11;;;;;;;4.45;3.70;;;;;;;15.98;100.00;98281.38;15294262;19;20363;-79
2023/09/13 05:40:36;;;;;;;6.57;4.28;;;;;;;15.94;100.00;98295.56;15293675;19;20024;-79
2023/09/13 05:46:00;;;;;;;6.22;4.03;;;;;;;15.92;100.00;98312.06;15291041;19;20022;-80
2023/09/13 05:51:27;;;;;;;6.40;3.60;;;;;;;15.93;100.00;98318.34;15294333;19;20015;-80
2023/09/13 05:56:53;;;;;;;5.25;3.78;;;;;;;15.93;100.00;98329.19;15289223;19;20014;-80
2023/09/13 06:02:19;;;;;;;5.97;3.60;;;;;;;15.95;100.00;98338.81;15292475;19;20049;-79
2023/09/13 06:07:46;;;;;;;7.18;2.90;;;;;;;15.97;100.00;98349.50;15296951;19;20385;-79
2023/09/13 06:13:15;;;;;;;6.97;2.88;;;;;;;16.02;100.00;98371.47;15293515;19;20085;-80
2023/09/13 06:18:41;;;;;;;6.25;2.55;;;;;;;16.09;100.00;98374.25;15295274;19;20021;-80
2023/09/13 06:24:09;;;;;;;4.25;2.45;;;;;;;16.18;100.00;98373.91;15294551;19;20011;-80
2023/09/13 06:29:34;;;;;;;3.00;2.30;;;;;;;16.26;100.00;98369.34;15286390;19;20410;-81
2023/09/13 06:35:00;;;;;;;3.83;2.30;;;;;;;16.36;100.00;98375.25;15285296;19;20011;-80
2023/09/13 06:40:33;;;;;;;4.53;2.60;;;;;;;16.44;100.00;98382.41;15290129;19;20026;-81
2023/09/13 06:45:59;;;;;;;3.97;2.58;;;;;;;16.59;100.00;98409.47;15291357;19;20025;-80
2023/09/13 06:51:26;;;;;;;3.50;2.50;;;;;;;16.72;100.00;98411.44;15294271;19;20038;-79
2023/09/13 06:57:12;;;;;;;3.80;2.40;;;;;;;16.90;100.00;98416.34;15284155;19;20015;-79
2023/09/13 07:02:41;;;;;;;4.78;2.55;;;;;;;17.04;100.00;98425.44;15283719;19;20010;-80
2023/09/13 07:08:10;;;;;;;3.45;2.67;;;;;;;17.18;100.00;98429.03;15284216;19;20022;-79
2023/09/13 07:13:37;;;;;;;3.45;2.53;;;;;;;17.33;100.00;98439.78;15287535;19;20018;-79
2023/09/13 07:19:05;;;;;;;3.38;2.53;;;;;;;17.44;100.00;98413.81;15290018;19;20093;-77
2023/09/13 07:24:37;;;;;;;3.50;2.10;;;;;;;17.54;100.00;98382.44;15289763;19;20081;-79
2023/09/13 07:30:09;;;;;;;4.28;2.10;;;;;;;17.65;100.00;98359.16;15292599;19;20027;-80
2023/09/13 07:35:35;;;;;;;2.33;1.60;;;;;;;17.84;100.00;98323.97;15284358;19;20682;-79
2023/09/13 07:41:00;;;;;;;2.05;1.67;;;;;;;17.92;100.00;98318.28;15283515;19;20027;-80
2023/09/13 07:46:28;;;;;;;1.55;1.45;;;;;;;17.98;100.00;98294.84;15283190;19;20088;-80
2023/09/13 07:51:53;;;;;;;2.67;1.33;;;;;;;18.00;100.00;98271.75;15284056;19;20366;-79
2023/09/13 07:57:18;;;;;;;3.30;1.60;;;;;;;18.07;100.00;98270.91;15281135;19;20082;-79
2023/09/13 08:02:48;;;;;;;2.67;1.55;;;;;;;18.06;100.00;98285.59;15276573;19;20643;-79
2023/09/13 08:08:14;;;;;;;1.80;1.30;;;;;;;18.06;100.00;98269.25;15263367;19;20640;-53
2023/09/13 08:13:39;;;;;;;1.73;1.20;;;;;;;18.13;100.00;98284.53;15265974;19;20022;-50
2023/09/13 08:19:08;;;;;;;1.73;1.33;;;;;;;18.23;100.00;98292.25;15269809;19;20094;-52
2023/09/13 08:24:35;;;;;;;1.30;1.20;;;;;;;18.26;100.00;98301.91;15269904;19;20375;-53
2023/09/13 08:30:01;;;;;;;2.80;1.50;;;;;;;18.37;100.00;98294.94;15268456;19;20018;-49
2023/09/13 08:35:28;;;;;;;2.78;1.60;;;;;;;18.39;100.00;98303.75;15263964;19;20021;-50
2023/09/13 08:40:56;;;;;;;1.83;1.38;;;;;;;18.46;100.00;98307.31;15267055;19;20476;-51
2023/09/13 08:46:22;;;;;;;2.75;1.60;;;;;;;18.51;100.00;98298.47;15261667;19;20028;-49
2023/09/13 08:51:51;;;;;;;3.17;1.48;;;;;;;18.55;100.00;98311.47;15266414;19;20017;-51
2023/09/13 08:57:18;;;;;;;2.85;1.30;;;;;;;18.51;100.00;98312.13;15277738;19;20019;-54
2023/09/13 09:02:43;;;;;;;2.20;1.50;;;;;;;18.57;100.00;98328.47;15283748;19;20081;-49
2023/09/13 09:08:17;;;;;;;2.17;1.45;;;;;;;18.63;100.00;98346.69;15276115;19;20757;-53
2023/09/13 09:13:45;;;;;;;1.80;1.40;;;;;;;18.70;100.00;98327.56;15282271;19;20014;-53
2023/09/13 09:19:10;;;;;;;2.28;1.60;;;;;;;18.84;100.00;98333.78;15283602;19;20018;-52
2023/09/13 09:24:37;;;;;;;2.13;1.60;;;;;;;18.90;100.00;98330.22;15280399;19;20007;-50
2023/09/13 09:30:14;;;;;;;2.80;1.50;;;;;;;19.02;100.00;98338.56;15280640;19;20346;-51
2023/09/13 09:35:39;;;;;;;1.67;1.30;;;;;;;19.18;100.00;98341.84;15280687;19;20025;-52
2023/09/13 09:41:09;;;;;;;1.63;1.40;;;;;;;19.29;100.00;98322.03;15274944;19;20024;-50
2023/09/13 09:46:35;;;;;;;2.00;1.75;;;;;;;19.29;100.00;98305.63;15273349;19;20174;-54
2023/09/13 09:52:02;;;;;;;1.92;1.70;;;;;;;19.28;100.00;98328.53;15279426;19;20677;-54
2023/09/13 09:57:30;;;;;;;2.03;1.30;;;;;;;19.22;100.00;98321.25;15276485;19;20014;-53
2023/09/13 10:03:01;;;;;;;1.45;1.30;;;;;;;19.38;100.00;98323.44;15280828;19;20031;-51
2023/09/13 10:08:46;;;;;;;3.03;1.40;;;;;;;19.53;100.00;98312.16;15272684;19;20014;-51
2023/09/13 10:14:28;;;;;;;1.30;1.20;;;;;;;19.64;100.00;98302.44;15275383;19;20022;-55
2023/09/13 10:19:55;;;;;;;3.03;1.42;;;;;;;19.83;100.00;98305.19;15275295;19;20115;-54
2023/09/13 10:25:22;;;;;;;1.48;1.20;;;;;;;19.89;100.00;98311.69;15275054;19;20016;-51
2023/09/13 10:30:50;;;;;;;1.75;1.20;;;;;;;19.92;100.00;98319.44;15276608;19;20037;-51
2023/09/13 10:36:23;;;;;;;1.58;1.30;;;;;;;20.02;100.00;98301.47;15274803;19;20031;-54
2023/09/13 10:41:55;;;;;;;1.50;1.40;;;;;;;20.46;100.00;98315.09;15276347;19;20077;-53
2023/09/13 10:47:23;;;;;;;4.03;1.40;;;;;;;20.75;100.00;98284.47;15270044;19;20010;-51
2023/09/13 10:52:48;;;;;;;1.58;1.48;;;;;;;20.87;100.00;98271.69;15270601;19;20027;-52
2023/09/13 10:58:24;;;;;;;1.50;1.40;;;;;;;20.89;100.00;98265.97;15276668;19;20014;-52
2023/09/13 11:03:53;;;;;;;1.40;1.30;;;;;;;20.84;100.00;98265.81;15272625;19;20014;-53
2023/09/13 11:09:32;;;;;;;1.80;1.70;;;;;;;20.73;100.00;98276.44;15269525;19;20487;-53
2023/09/13 11:14:57;;;;;;;1.77;1.67;;;;;;;20.69;100.00;98285.34;15272948;19;20034;-51
2023/09/13 11:20:38;;;;;;;1.60;1.50;;;;;;;20.70;100.00;98292.50;15269832;19;20025;-53
2023/09/13 11:26:05;;;;;;;2.33;1.67;;;;;;;20.72;100.00;98293.94;15266084;19;20017;-53
2023/09/13 11:32:09;;;;;;;2.08;1.88;;;;;;;20.72;100.00;98306.78;15266913;19;20026;-51
2023/09/13 11:37:38;;;;;;;1.70;1.60;;;;;;;20.77;100.00;98306.97;15267138;19;20027;-53
2023/09/13 11:43:04;;;;;;;1.73;1.63;;;;;;;20.85;100.00;98309.41;15273870;19;20090;-52
2023/09/13 11:48:52;;;;;;;2.08;1.75;;;;;;;20.87;100.00;98314.63;15266882;19;20022;-52
2023/09/13 11:54:25;;;;;;;1.83;1.73;;;;;;;20.82;100.00;98311.75;15269443;19;20102;-52
2023/09/13 11:59:55;;;;;;;2.88;1.80;;;;;;;20.78;100.00;98322.31;15267981;19;20025;-52
2023/09/13 12:05:21;;;;;;;2.28;1.70;;;;;;;20.68;100.00;98313.78;15266762;19;20015;-52
2023/09/13 12:11:10;;;;;;;2.10;1.70;;;;;;;20.58;100.00;98317.09;15263973;19;20010;-56
2023/09/13 12:16:39;;;;;;;2.20;1.70;;;;;;;20.64;100.00;98322.44;15265099;19;20795;-55
2023/09/13 12:22:04;;;;;;;1.65;1.50;;;;;;;20.86;100.00;98319.28;15264502;19;20019;-55
2023/09/13 12:27:32;;;;;;;1.75;1.65;;;;;;;21.23;100.00;98321.09;15263735;19;20021;-56
2023/09/13 12:32:57;;;;;;;3.00;1.63;;;;;;;21.36;100.00;98300.84;15284270;19;20829;-55
2023/09/13 12:38:21;;;;;;;2.60;1.70;;;;;;;21.63;100.00;98305.97;15274480;19;20025;-53
2023/09/13 12:43:51;;;;;;;2.25;1.65;;;;;;;21.87;100.00;98293.13;15283842;19;20035;-53
2023/09/13 12:49:15;;;;;;;1.88;1.70;;;;;;;22.12;100.00;98292.84;15281360;19;20025;-55
2023/09/13 12:54:42;;;;;;;1.73;1.50;;;;;;;22.00;100.00;98287.38;15275987;19;20025;-56
2023/09/13 13:00:10;;;;;;;1.50;1.40;;;;;;;22.02;100.00;98293.44;15275734;19;20418;-55
2023/09/13 13:05:43;;;;;;;1.48;1.33;;;;;;;22.16;100.00;98288.56;15278319;19;20030;-53
2023/09/13 13:11:15;;;;;;;1.33;1.23;;;;;;;22.19;100.00;98281.75;15278514;19;20029;-55
2023/09/13 13:16:44;;;;;;;1.17;0.90;;;;;;;22.35;100.00;98274.69;15277632;19;20029;-54
2023/09/13 13:22:11;;;;;;;2.75;0.90;;;;;;;22.55;100.00;98267.97;15281698;19;20017;-55
2023/09/13 13:27:36;;;;;;;1.10;0.80;;;;;;;22.63;100.00;98270.38;15277869;19;20010;-53
2023/09/13 13:33:03;;;;;;;0.80;0.70;;;;;;;22.74;100.00;98271.38;15275245;19;20089;-54
2023/09/13 13:38:28;;;;;;;0.77;0.60;;;;;;;22.69;100.00;98269.38;15269759;19;20351;-55
2023/09/13 13:43:52;;;;;;;0.82;0.73;;;;;;;23.02;100.00;98254.06;15275882;19;20007;-56
2023/09/13 13:49:20;;;;;;;1.05;0.70;;;;;;;23.11;100.00;98248.19;15268816;19;20566;-53
2023/09/13 13:54:44;;;;;;;0.60;0.60;;;;;;;23.26;100.00;98259.47;15271038;19;20411;-56
2023/09/13 14:00:13;;;;;;;0.70;0.70;;;;;;;23.18;100.00;98257.09;15265889;19;20041;-53
2023/09/13 14:05:42;;;;;;;0.50;0.50;;;;;;;22.90;100.00;98248.63;15268606;19;20081;-56
2023/09/13 14:11:13;;;;;;;0.65;0.60;;;;;;;22.67;100.00;98255.03;15279264;19;20467;-52
2023/09/13 14:16:43;;;;;;;0.90;0.70;;;;;;;22.78;100.00;98258.84;15265434;19;20463;-58
2023/09/13 14:22:10;;;;;;;1.20;0.60;;;;;;;22.82;100.00;98264.66;15278010;19;20016;-55
2023/09/13 14:27:35;;;;;;;0.75;0.70;;;;;;;23.07;100.00;98259.66;15275201;19;20011;-55
2023/09/13 14:33:22;;;;;;;1.63;0.70;;;;;;;23.37;100.00;98258.53;15274289;19;20029;-55
2023/09/13 14:38:50;;;;;;;1.95;0.50;;;;;;;23.69;100.00;98259.88;15263537;19;20363;-61
2023/09/13 14:44:14;;;;;;;0.68;0.43;;;;;;;23.59;100.00;98268.78;15273667;19;20025;-56
2023/09/13 14:49:39;;;;;;;1.23;0.60;;;;;;;23.73;100.00;98265.72;15274201;19;20017;-49
2023/09/13 14:55:07;;;;;;;6.70;0.88;;;;;;;23.30;100.00;98271.63;15275884;19;20102;-59
2023/09/13 15:00:31;;;;;;;2.65;0.80;;;;;;;23.09;100.00;98271.25;15273346;19;20092;-58
2023/09/13 15:05:55;;;;;;;0.70;0.70;;;;;;;22.98;100.00;98279.53;15271766;19;20020;-50
2023/09/13 15:11:29;;;;;;;0.75;0.75;;;;;;;23.02;100.00;98273.28;15265983;19;20085;-52
2023/09/13 15:16:54;;;;;;;0.95;0.93;;;;;;;23.10;100.00;98280.31;15267679;19;20082;-51
2023/09/13 15:22:18;;;;;;;0.90;0.90;;;;;;;23.12;100.00;98282.78;15271668;19;20017;-54
2023/09/13 15:27:48;;;;;;;1.17;1.02;;;;;;;23.15;100.00;98282.31;15273420;19;20021;-51
2023/09/13 15:33:13;;;;;;;3.58;1.38;;;;;;;23.27;100.00;98285.84;15273985;19;20025;-56
2023/09/13 15:38:39;;;;;;;1.63;1.13;;;;;;;23.36;100.00;98289.03;15270225;19;20022;-58
2023/09/13 15:44:19;;;;;;;1.10;1.00;;;;;;;23.07;100.00;98292.63;15266477;19;20018;-60
2023/09/13 15:49:44;;;;;;;2.65;1.00;;;;;;;23.01;100.00;98288.09;15267857;19;20025;-56
2023/09/13 15:55:09;;;;;;;1.00;0.95;;;;;;;22.70;100.00;98298.50;15269016;19;20025;-57
2023/09/13 16:00:36;;;;;;;2.95;1.00;;;;;;;22.36;100.00;98306.56;15270135;19;20699;-57
2023/09/13 16:06:00;;;;;;;0.98;0.95;;;;;;;22.36;100.00;98322.16;15265419;19;20011;-53
2023/09/13 16:11:34;;;;;;;1.20;0.95;;;;;;;22.08;100.00;98315.53;15270472;19;20032;-56
2023/09/13 16:17:02;;;;;;;0.90;0.80;;;;;;;21.78;100.00;98320.06;15270901;19;20025;-56
2023/09/13 16:22:27;;;;;;;1.25;0.90;;;;;;;21.55;100.00;98318.91;15265786;19;20418;-51
2023/09/13 16:27:53;;;;;;;1.63;0.98;;;;;;;21.38;100.00;98309.69;15261225;19;20444;-50
2023/09/13 16:33:19;;;;;;;1.00;0.90;;;;;;;21.28;100.00;98320.38;15271895;19;20038;-56
2023/09/13 16:38:45;;;;;;;3.38;0.90;;;;;;;21.04;100.00;98329.38;15271743;19;20381;-55
2023/09/13 16:44:09;;;;;;;0.90;0.90;;;;;;;20.93;100.00;98335.63;15266721;19;20481;-56
2023/09/13 16:49:37;;;;;;;1.02;0.93;;;;;;;20.80;100.00;98336.63;15268593;19;20021;-55
2023/09/13 16:55:03;;;;;;;1.08;0.80;;;;;;;20.66;100.00;98335.94;15267501;19;20695;-55
2023/09/13 17:00:27;;;;;;;0.93;0.93;;;;;;;20.61;100.00;98338.50;15267010;19;20479;-56
2023/09/13 17:05:55;;;;;;;1.75;1.10;;;;;;;20.55;100.00;98345.72;15264154;19;20024;-57
2023/09/13 17:11:26;;;;;;;0.90;0.82;;;;;;;20.53;100.00;98347.84;15253528;19;20033;-55
2023/09/13 17:16:51;;;;;;;1.05;0.93;;;;;;;20.51;100.00;98351.88;15275331;19;20694;-53
2023/09/13 17:22:19;;;;;;;2.58;1.10;;;;;;;20.51;100.00;98360.94;15280190;19;20086;-59
2023/09/13 17:27:44;;;;;;;0.93;0.90;;;;;;;20.52;100.00;98354.38;15280488;19;20105;-54
2023/09/13 17:33:10;;;;;;;1.60;1.08;;;;;;;20.51;100.00;98363.69;15280208;19;20033;-55
2023/09/13 17:38:37;;;;;;;0.95;0.88;;;;;;;20.50;100.00;98369.38;15269815;19;20082;-52
2023/09/13 17:44:02;;;;;;;1.98;1.10;;;;;;;20.47;100.00;98378.88;15270043;19;20412;-54
2023/09/13 17:49:29;;;;;;;1.08;0.90;;;;;;;20.42;100.00;98381.44;15277081;19;20353;-54
2023/09/13 17:54:56;;;;;;;2.00;1.27;;;;;;;20.35;100.00;98394.38;15275808;19;20102;-55
2023/09/13 18:00:20;;;;;;;1.35;1.20;;;;;;;20.23;100.00;98394.25;15268009;19;20645;-53
2023/09/13 18:05:46;;;;;;;1.00;1.00;;;;;;;20.14;100.00;98404.66;15275827;19;20016;-52
2023/09/13 18:11:21;;;;;;;1.20;1.10;;;;;;;19.95;100.00;98417.44;15274214;19;20017;-52
2023/09/13 18:16:46;;;;;;;1.50;1.40;;;;;;;19.81;100.00;98436.63;15271730;19;20094;-50
2023/09/13 18:22:11;;;;;;;1.75;1.65;;;;;;;19.51;100.00;98480.13;15281216;19;20010;-53
2023/09/13 18:27:39;;;;;;;7.15;3.17;;;;;;;18.76;100.00;98577.75;15273628;19;20035;-52
2023/09/13 18:33:04;;;;;;;7.93;3.88;;;;;;;18.39;100.00;98661.91;15268887;19;20030;-57
2023/09/13 18:38:29;;;;;;;9.95;6.43;;;;;;;17.98;100.00;98741.88;15271985;19;20433;-57
2023/09/13 18:43:57;;;;;;;33.20;7.97;;;;;;;17.76;100.00;98807.34;15275979;19;20362;-57
2023/09/13 18:49:21;;;;;;;12.13;10.18;;;;;;;17.59;100.00;98891.25;15270350;19;20355;-55
2023/09/13 18:54:46;;;;;;;23.33;14.40;;;;;;;17.42;100.00;98907.00;15268721;19;20013;-55
2023/09/13 19:00:14;;;;;;;27.70;15.75;;;;;;;17.16;100.00;98935.63;15269770;19;20814;-55
2023/09/13 19:05:39;;;;;;;28.60;18.77;;;;;;;16.94;100.00;98949.19;15266299;19;20361;-57
2023/09/13 19:11:15;;;;;;;22.20;15.88;;;;;;;16.66;100.00;98942.69;15270272;19;20050;-55
2023/09/13 19:16:43;;;;;;;23.25;17.38;;;;;;;16.42;100.00;98947.38;15271040;19;20482;-54
2023/09/13 19:22:08;;;;;;;20.33;16.60;;;;;;;16.22;100.00;98972.38;15271326;19;20061;-56
2023/09/13 19:27:32;;;;;;;21.02;16.50;;;;;;;16.16;100.00;98990.28;15269044;19;20355;-52
2023/09/13 19:33:03;;;;;;;18.92;15.25;;;;;;;16.08;100.00;99008.53;15270833;19;20419;-55
2023/09/13 19:38:28;;;;;;;18.25;13.75;;;;;;;16.05;100.00;99030.66;15264711;19;20010;-57
2023/09/13 19:43:53;;;;;;;11.82;9.93;;;;;;;15.88;100.00;99038.09;15275235;19;20010;-53
2023/09/13 19:49:21;;;;;;;10.32;7.47;;;;;;;15.69;100.00;99022.03;15275608;19;20027;-54
2023/09/13 19:54:46;;;;;;;14.82;9.10;;;;;;;15.56;100.00;99021.78;15265742;19;20024;-57
2023/09/13 20:00:12;;;;;;;9.10;6.53;;;;;;;15.38;100.00;99020.16;15269859;19;20006;-56
2023/09/13 20:05:44;;;;;;;8.63;6.88;;;;;;;15.32;100.00;99010.03;15269291;19;20039;-56
2023/09/13 20:11:16;;;;;;;7.80;5.90;;;;;;;15.16;100.00;99020.97;15259872;19;20014;-52
2023/09/13 20:16:40;;;;;;;7.45;5.55;;;;;;;15.08;100.00;99017.25;15267730;19;20011;-56
2023/09/13 20:22:08;;;;;;;5.82;5.00;;;;;;;15.02;100.00;99001.66;15270308;19;20038;-55
2023/09/13 20:27:34;;;;;;;3.78;3.20;;;;;;;14.93;100.00;98995.41;15264644;19;20413;-54
2023/09/13 20:33:00;;;;;;;1.80;1.70;;;;;;;14.74;100.00;98969.56;15273721;19;20010;-51
2023/09/13 20:38:29;;;;;;;2.97;1.70;;;;;;;14.64;100.00;98955.34;15267379;19;20807;-55
2023/09/13 20:43:53;;;;;;;1.05;1.05;;;;;;;14.49;100.00;98950.63;15240636;19;20029;-55
2023/09/13 20:49:19;;;;;;;1.38;1.20;;;;;;;14.40;100.00;98959.81;15271105;19;20515;-57
2023/09/13 20:54:47;;;;;;;1.80;1.20;;;;;;;14.32;100.00;98970.66;15285956;19;20045;-54
2023/09/13 21:00:14;;;;;;;1.20;1.10;;;;;;;14.20;100.00;98993.69;15273067;19;20015;-55
2023/09/13 21:05:40;;;;;;;1.52;1.20;;;;;;;14.18;100.00;99013.69;15280815;19;20410;-52
2023/09/13 21:11:08;;;;;;;1.45;1.30;;;;;;;14.15;100.00;99038.44;15276354;19;20021;-56
2023/09/13 21:16:33;;;;;;;2.22;1.60;;;;;;;14.17;100.00;99041.78;15272999;19;20015;-54
2023/09/13 21:21:57;;;;;;;1.73;1.50;;;;;;;14.18;100.00;99054.34;15282256;19;20470;-52
2023/09/13 21:27:25;;;;;;;1.60;1.50;;;;;;;14.18;100.00;99050.78;15278644;19;20066;-55
2023/09/13 21:32:50;;;;;;;2.28;1.70;;;;;;;14.13;100.00;99045.88;15276352;19;20062;-55
2023/09/13 21:38:15;;;;;;;3.67;1.42;;;;;;;14.08;100.00;99075.34;15277528;19;20019;-52
2023/09/13 21:43:42;;;;;;;1.63;1.30;;;;;;;14.00;100.00;99072.63;15279462;19;20722;-52
2023/09/13 21:49:07;;;;;;;2.15;1.40;;;;;;;13.97;100.00;99062.13;15272918;19;20014;-51
2023/09/13 21:54:34;;;;;;;1.35;1.20;;;;;;;13.86;100.00;99039.75;15279200;19;20482;-51
2023/09/13 22:00:05;;;;;;;1.48;1.20;;;;;;;13.79;100.00;99046.00;15278367;19;20030;-52
2023/09/13 22:05:31;;;;;;;1.90;1.45;;;;;;;13.71;100.00;99060.38;15273508;19;20015;-55
2023/09/13 22:11:10;;;;;;;1.48;1.38;;;;;;;13.64;100.00;99070.19;15273521;19;20074;-50
2023/09/13 22:16:31;;;;;;;1.58;1.30;;;;;;;13.55;100.00;99070.16;15274085;19;20027;-51
2023/09/13 22:21:56;;;;;;;2.83;1.50;;;;;;;13.53;100.00;99091.13;15270555;19;20047;-56
2023/09/13 22:27:21;;;;;;;1.50;1.40;;;;;;;13.47;100.00;99088.22;15273576;19;20014;-52
2023/09/13 22:32:50;;;;;;;1.95;1.55;;;;;;;13.40;100.00;99105.13;15275330;19;20030;-51
2023/09/13 22:38:16;;;;;;;2.00;1.40;;;;;;;13.32;100.00;99096.94;15273176;19;20010;-51
2023/09/13 22:43:49;;;;;;;1.45;1.30;;;;;;;13.19;100.00;99075.75;14763954;19;10000827;-52
2023/09/13 22:49:21;;;;;;;2.83;1.20;;;;;;;13.13;100.00;99075.53;15272293;19;20010;-56
2023/09/13 22:54:47;;;;;;;2.55;1.20;;;;;;;13.14;100.00;99055.59;15269400;19;20015;-55
2023/09/13 23:00:14;;;;;;;2.17;1.00;;;;;;;13.12;100.00;99036.81;15273126;19;20413;-57
2023/09/13 23:05:45;;;;;;;2.05;0.90;;;;;;;13.07;100.00;99017.53;15270092;19;20006;-54
2023/09/13 23:11:11;;;;;;;1.17;0.90;;;;;;;13.07;100.00;99001.28;15270775;19;20078;-51
2023/09/13 23:16:36;;;;;;;1.77;1.00;;;;;;;13.00;100.00;98959.66;15274759;19;20081;-54
2023/09/13 23:22:05;;;;;;;1.52;0.95;;;;;;;12.97;100.00;98968.97;15273719;19;20809;-53
2023/09/13 23:27:30;;;;;;;2.00;1.10;;;;;;;12.89;100.00;98972.47;15275166;19;20010;-51
2023/09/13 23:32:56;;;;;;;2.67;1.17;;;;;;;12.85;100.00;98971.13;15275606;19;20011;-55
2023/09/13 23:38:24;;;;;;;1.70;1.00;;;;;;;12.74;100.00;98945.22;15271389;19;20015;-50
2023/09/13 23:43:50;;;;;;;1.83;1.10;;;;;;;12.75;100.00;98965.00;15273830;19;20070;-52
2023/09/13 23:49:14;;;;;;;5.05;1.20;;;;;;;12.77;100.00;98982.75;15273259;19;20020;-51
2023/09/13 23:54:42;;;;;;;4.13;1.30;;;;;;;12.74;100.00;98987.63;15266415;19;20007;-51
